CN26 weather

Rodgers Flat Heliport
Belden, California, United States

Public forecast

Using degrees Fahrenheit for public forecast. Weather courtesy of forecast.io.

Closest aviation weather report (METAR) to Rodgers Flat Heliport

Closest report is Chico Municipal Airport, 28.4 nm (52.5 km) WSW. Retrieved 2019/10/14 16:03 UTC (33 minutes ago):

KCIC 141603Z 00000KT 25SM SKC 10/00 A2996

Closest aviation forecast (TAF) to Rodgers Flat Heliport

Closest forecast is Red Bluff Municipal Airport, 45.8 nm (84.9 km) WNW. Retrieved 2019/10/14 12:24 UTC (4 hours ago):

TAF KRBL 141122Z 1412/1512 VRB05KT P6SM SKC